sensor_id;sensor_type;location;lat;lon;timestamp;temperature;humidity
77700;DHT22;66867;42.658;23.320;2023-05-29T00:00:00;16.5;78
77700;DHT22;66867;42.658;23.320;2023-05-29T00:01:00;16.5;79
77700;DHT22;66867;42.658;23.320;2023-05-29T00:02:00;16.5;79
77700;DHT22;66867;42.658;23.320;2023-05-29T00:03:00;16.4;79
77700;DHT22;66867;42.658;23.320;2023-05-29T00:04:00;16.4;79
77700;DHT22;66867;42.658;23.320;2023-05-29T00:05:00;16.4;79
77700;DHT22;66867;42.658;23.320;2023-05-29T00:06:02;16.4;79
77700;DHT22;66867;42.658;23.320;2023-05-29T00:07:00;16.4;79
77700;DHT22;66867;42.658;23.320;2023-05-29T00:08:00;16.4;79
77700;DHT22;66867;42.658;23.320;2023-05-29T00:09:00;16.4;79
77700;DHT22;66867;42.658;23.320;2023-05-29T00:10:00;16.4;79
77700;DHT22;66867;42.658;23.320;2023-05-29T00:11:00;16.4;79
77700;DHT22;66867;42.658;23.320;2023-05-29T00:12:00;16.4;79
77700;DHT22;66867;42.658;23.320;2023-05-29T00:13:00;16.4;79
77700;DHT22;66867;42.658;23.320;2023-05-29T00:14:00;16.4;79
77700;DHT22;66867;42.658;23.320;2023-05-29T00:15:00;16.4;79
77700;DHT22;66867;42.658;23.320;2023-05-29T00:16:00;16.4;79
77700;DHT22;66867;42.658;23.320;2023-05-29T00:17:00;16.4;79
77700;DHT22;66867;42.658;23.320;2023-05-29T00:18:00;16.3;79
77700;DHT22;66867;42.658;23.320;2023-05-29T00:19:00;16.4;79
77700;DHT22;66867;42.658;23.320;2023-05-29T00:20:01;16.3;79
77700;DHT22;66867;42.658;23.320;2023-05-29T00:21:00;16.3;79
77700;DHT22;66867;42.658;23.320;2023-05-29T00:22:00;16.3;79
77700;DHT22;66867;42.658;23.320;2023-05-29T00:23:00;16.3;79
77700;DHT22;66867;42.658;23.320;2023-05-29T00:24:00;16.2;79
77700;DHT22;66867;42.658;23.320;2023-05-29T00:25:00;16.3;79
77700;DHT22;66867;42.658;23.320;2023-05-29T00:26:00;16.2;79
77700;DHT22;66867;42.658;23.320;2023-05-29T00:27:00;16.2;79
77700;DHT22;66867;42.658;23.320;2023-05-29T00:28:00;16.2;80
77700;DHT22;66867;42.658;23.320;2023-05-29T00:29:00;16.2;80
77700;DHT22;66867;42.658;23.320;2023-05-29T00:30:00;16.2;80
77700;DHT22;66867;42.658;23.320;2023-05-29T00:31:00;16.2;80
77700;DHT22;66867;42.658;23.320;2023-05-29T00:32:00;16.2;80
77700;DHT22;66867;42.658;23.320;2023-05-29T00:33:00;16.2;80
77700;DHT22;66867;42.658;23.320;2023-05-29T00:34:00;16.2;80
77700;DHT22;66867;42.658;23.320;2023-05-29T00:35:00;16.2;80
77700;DHT22;66867;42.658;23.320;2023-05-29T00:36:00;16.3;79
77700;DHT22;66867;42.658;23.320;2023-05-29T00:37:00;16.2;79
77700;DHT22;66867;42.658;23.320;2023-05-29T00:38:00;16.2;79
77700;DHT22;66867;42.658;23.320;2023-05-29T00:39:00;16.2;79
77700;DHT22;66867;42.658;23.320;2023-05-29T00:40:00;16.3;80
77700;DHT22;66867;42.658;23.320;2023-05-29T00:41:00;16.2;80
77700;DHT22;66867;42.658;23.320;2023-05-29T00:42:00;16.2;80
77700;DHT22;66867;42.658;23.320;2023-05-29T00:43:00;16.2;80
77700;DHT22;66867;42.658;23.320;2023-05-29T00:44:00;16.2;80
77700;DHT22;66867;42.658;23.320;2023-05-29T00:45:00;16.2;80
77700;DHT22;66867;42.658;23.320;2023-05-29T00:46:00;16.2;80
77700;DHT22;66867;42.658;23.320;2023-05-29T00:47:00;16.2;80
77700;DHT22;66867;42.658;23.320;2023-05-29T00:48:00;16.2;80
77700;DHT22;66867;42.658;23.320;2023-05-29T00:49:00;16.2;80
77700;DHT22;66867;42.658;23.320;2023-05-29T00:50:00;16.2;80
77700;DHT22;66867;42.658;23.320;2023-05-29T00:51:00;16.2;80
77700;DHT22;66867;42.658;23.320;2023-05-29T00:52:00;16.2;80
77700;DHT22;66867;42.658;23.320;2023-05-29T00:53:00;16.2;80
77700;DHT22;66867;42.658;23.320;2023-05-29T00:54:00;16.2;80
77700;DHT22;66867;42.658;23.320;2023-05-29T00:55:00;16.2;80
77700;DHT22;66867;42.658;23.320;2023-05-29T00:56:00;16.2;80
77700;DHT22;66867;42.658;23.320;2023-05-29T00:57:00;16.2;80
77700;DHT22;66867;42.658;23.320;2023-05-29T00:58:00;16.2;80
77700;DHT22;66867;42.658;23.320;2023-05-29T00:59:00;16.2;80
77700;DHT22;66867;42.658;23.320;2023-05-29T01:00:01;16.2;80
77700;DHT22;66867;42.658;23.320;2023-05-29T01:01:00;16.2;80
77700;DHT22;66867;42.658;23.320;2023-05-29T01:02:00;16.2;80
77700;DHT22;66867;42.658;23.320;2023-05-29T01:03:00;16.1;80
77700;DHT22;66867;42.658;23.320;2023-05-29T01:04:00;16.1;80
77700;DHT22;66867;42.658;23.320;2023-05-29T01:05:00;16.1;80
77700;DHT22;66867;42.658;23.320;2023-05-29T01:06:00;16.1;80
77700;DHT22;66867;42.658;23.320;2023-05-29T01:07:00;16.1;80
77700;DHT22;66867;42.658;23.320;2023-05-29T01:08:00;16.1;80
77700;DHT22;66867;42.658;23.320;2023-05-29T01:09:00;16.0;80
77700;DHT22;66867;42.658;23.320;2023-05-29T01:10:00;16.0;81
77700;DHT22;66867;42.658;23.320;2023-05-29T01:11:02;16.0;81
77700;DHT22;66867;42.658;23.320;2023-05-29T01:12:07;16.0;81
77700;DHT22;66867;42.658;23.320;2023-05-29T01:13:06;16.0;81
77700;DHT22;66867;42.658;23.320;2023-05-29T01:14:00;16.0;81
77700;DHT22;66867;42.658;23.320;2023-05-29T01:16:05;15.9;80
77700;DHT22;66867;42.658;23.320;2023-05-29T01:17:03;15.9;80
77700;DHT22;66867;42.658;23.320;2023-05-29T01:19:01;15.9;80
77700;DHT22;66867;42.658;23.320;2023-05-29T01:21:06;15.9;81
77700;DHT22;66867;42.658;23.320;2023-05-29T01:27:01;15.8;81
77700;DHT22;66867;42.658;23.320;2023-05-29T01:28:00;15.8;81
77700;DHT22;66867;42.658;23.320;2023-05-29T01:29:00;15.7;81
77700;DHT22;66867;42.658;23.320;2023-05-29T01:30:00;15.8;81
77700;DHT22;66867;42.658;23.320;2023-05-29T01:31:00;15.8;81
77700;DHT22;66867;42.658;23.320;2023-05-29T01:32:00;15.7;81
77700;DHT22;66867;42.658;23.320;2023-05-29T01:33:00;15.7;81
77700;DHT22;66867;42.658;23.320;2023-05-29T01:34:00;15.7;81
77700;DHT22;66867;42.658;23.320;2023-05-29T01:35:00;15.7;81
77700;DHT22;66867;42.658;23.320;2023-05-29T01:36:00;15.7;81
77700;DHT22;66867;42.658;23.320;2023-05-29T01:37:00;15.7;81
77700;DHT22;66867;42.658;23.320;2023-05-29T01:38:00;15.6;81
77700;DHT22;66867;42.658;23.320;2023-05-29T01:39:00;15.7;81
77700;DHT22;66867;42.658;23.320;2023-05-29T01:40:00;15.6;81
77700;DHT22;66867;42.658;23.320;2023-05-29T01:41:00;15.7;81
77700;DHT22;66867;42.658;23.320;2023-05-29T01:42:00;15.7;81
77700;DHT22;66867;42.658;23.320;2023-05-29T01:43:01;15.6;82
77700;DHT22;66867;42.658;23.320;2023-05-29T01:44:01;15.7;82
77700;DHT22;66867;42.658;23.320;2023-05-29T01:45:00;15.7;82
77700;DHT22;66867;42.658;23.320;2023-05-29T01:46:00;15.7;82
77700;DHT22;66867;42.658;23.320;2023-05-29T01:47:00;15.7;82
77700;DHT22;66867;42.658;23.320;2023-05-29T01:48:00;15.7;82
77700;DHT22;66867;42.658;23.320;2023-05-29T01:49:00;15.7;82
77700;DHT22;66867;42.658;23.320;2023-05-29T01:50:00;15.7;82
77700;DHT22;66867;42.658;23.320;2023-05-29T01:51:00;15.7;82
77700;DHT22;66867;42.658;23.320;2023-05-29T01:52:00;15.7;82
77700;DHT22;66867;42.658;23.320;2023-05-29T01:53:00;15.7;82
77700;DHT22;66867;42.658;23.320;2023-05-29T01:54:00;15.7;82
77700;DHT22;66867;42.658;23.320;2023-05-29T01:55:00;15.7;82
77700;DHT22;66867;42.658;23.320;2023-05-29T01:56:00;15.7;82
77700;DHT22;66867;42.658;23.320;2023-05-29T01:57:00;15.7;82
77700;DHT22;66867;42.658;23.320;2023-05-29T01:58:00;15.7;82
77700;DHT22;66867;42.658;23.320;2023-05-29T01:59:00;15.7;82
77700;DHT22;66867;42.658;23.320;2023-05-29T02:00:01;15.7;82
77700;DHT22;66867;42.658;23.320;2023-05-29T02:01:02;15.7;82
77700;DHT22;66867;42.658;23.320;2023-05-29T02:02:05;15.7;82
77700;DHT22;66867;42.658;23.320;2023-05-29T02:03:00;15.7;82
77700;DHT22;66867;42.658;23.320;2023-05-29T02:04:00;15.7;82
77700;DHT22;66867;42.658;23.320;2023-05-29T02:05:00;15.7;82
77700;DHT22;66867;42.658;23.320;2023-05-29T02:06:00;15.7;82
77700;DHT22;66867;42.658;23.320;2023-05-29T02:07:00;15.7;82
77700;DHT22;66867;42.658;23.320;2023-05-29T02:08:00;15.7;82
77700;DHT22;66867;42.658;23.320;2023-05-29T02:09:00;15.7;82
77700;DHT22;66867;42.658;23.320;2023-05-29T02:10:00;15.7;82
77700;DHT22;66867;42.658;23.320;2023-05-29T02:11:00;15.6;82
77700;DHT22;66867;42.658;23.320;2023-05-29T02:12:00;15.6;82
77700;DHT22;66867;42.658;23.320;2023-05-29T02:13:00;15.6;82
77700;DHT22;66867;42.658;23.320;2023-05-29T02:14:00;15.6;82
77700;DHT22;66867;42.658;23.320;2023-05-29T02:15:00;15.6;83
77700;DHT22;66867;42.658;23.320;2023-05-29T02:16:00;15.6;83
77700;DHT22;66867;42.658;23.320;2023-05-29T02:17:00;15.6;83
77700;DHT22;66867;42.658;23.320;2023-05-29T02:18:00;15.6;83
77700;DHT22;66867;42.658;23.320;2023-05-29T02:19:00;15.7;82
77700;DHT22;66867;42.658;23.320;2023-05-29T02:20:01;15.7;82
77700;DHT22;66867;42.658;23.320;2023-05-29T02:21:00;15.7;82
77700;DHT22;66867;42.658;23.320;2023-05-29T02:22:00;15.7;82
77700;DHT22;66867;42.658;23.320;2023-05-29T02:23:00;15.7;82
77700;DHT22;66867;42.658;23.320;2023-05-29T02:24:00;15.7;82
77700;DHT22;66867;42.658;23.320;2023-05-29T02:25:00;15.7;82
77700;DHT22;66867;42.658;23.320;2023-05-29T02:26:00;15.7;82
77700;DHT22;66867;42.658;23.320;2023-05-29T02:27:00;15.7;82
77700;DHT22;66867;42.658;23.320;2023-05-29T02:28:00;15.7;82
77700;DHT22;66867;42.658;23.320;2023-05-29T02:29:00;15.7;82
77700;DHT22;66867;42.658;23.320;2023-05-29T02:30:00;15.7;82
77700;DHT22;66867;42.658;23.320;2023-05-29T02:31:01;15.7;83
77700;DHT22;66867;42.658;23.320;2023-05-29T02:32:00;15.7;83
77700;DHT22;66867;42.658;23.320;2023-05-29T02:33:00;15.7;83
77700;DHT22;66867;42.658;23.320;2023-05-29T02:34:00;15.7;83
77700;DHT22;66867;42.658;23.320;2023-05-29T02:35:00;15.7;83
77700;DHT22;66867;42.658;23.320;2023-05-29T02:36:00;15.7;83
77700;DHT22;66867;42.658;23.320;2023-05-29T02:37:00;15.7;83
77700;DHT22;66867;42.658;23.320;2023-05-29T02:38:00;15.7;83
77700;DHT22;66867;42.658;23.320;2023-05-29T02:39:00;15.7;83
77700;DHT22;66867;42.658;23.320;2023-05-29T02:40:00;15.7;83
77700;DHT22;66867;42.658;23.320;2023-05-29T02:41:00;15.7;83
77700;DHT22;66867;42.658;23.320;2023-05-29T02:42:00;15.7;83
77700;DHT22;66867;42.658;23.320;2023-05-29T02:43:00;15.7;83
77700;DHT22;66867;42.658;23.320;2023-05-29T02:44:00;15.7;83
77700;DHT22;66867;42.658;23.320;2023-05-29T02:45:00;15.7;83
77700;DHT22;66867;42.658;23.320;2023-05-29T02:46:00;15.7;83
77700;DHT22;66867;42.658;23.320;2023-05-29T02:47:00;15.7;83
77700;DHT22;66867;42.658;23.320;2023-05-29T02:48:00;15.7;83
77700;DHT22;66867;42.658;23.320;2023-05-29T02:49:00;15.7;83
77700;DHT22;66867;42.658;23.320;2023-05-29T02:50:01;15.7;83
77700;DHT22;66867;42.658;23.320;2023-05-29T02:51:00;15.7;83
77700;DHT22;66867;42.658;23.320;2023-05-29T02:52:00;15.7;83
77700;DHT22;66867;42.658;23.320;2023-05-29T02:53:00;15.7;83
77700;DHT22;66867;42.658;23.320;2023-05-29T02:54:00;15.6;83
77700;DHT22;66867;42.658;23.320;2023-05-29T02:55:00;15.6;83
77700;DHT22;66867;42.658;23.320;2023-05-29T02:56:00;15.6;83
77700;DHT22;66867;42.658;23.320;2023-05-29T02:57:00;15.6;82
77700;DHT22;66867;42.658;23.320;2023-05-29T02:58:00;15.6;82
77700;DHT22;66867;42.658;23.320;2023-05-29T02:59:00;15.6;82
77700;DHT22;66867;42.658;23.320;2023-05-29T03:00:00;15.5;82
77700;DHT22;66867;42.658;23.320;2023-05-29T03:01:00;15.5;82
77700;DHT22;66867;42.658;23.320;2023-05-29T03:02:00;15.4;82
77700;DHT22;66867;42.658;23.320;2023-05-29T03:03:00;15.4;82
77700;DHT22;66867;42.658;23.320;2023-05-29T03:04:00;15.4;82
77700;DHT22;66867;42.658;23.320;2023-05-29T03:05:00;15.4;82
77700;DHT22;66867;42.658;23.320;2023-05-29T03:06:00;15.4;82
77700;DHT22;66867;42.658;23.320;2023-05-29T03:07:00;15.4;82
77700;DHT22;66867;42.658;23.320;2023-05-29T03:08:00;15.4;82
77700;DHT22;66867;42.658;23.320;2023-05-29T03:09:00;15.4;82
77700;DHT22;66867;42.658;23.320;2023-05-29T03:10:00;15.4;82
77700;DHT22;66867;42.658;23.320;2023-05-29T03:11:00;15.4;82
77700;DHT22;66867;42.658;23.320;2023-05-29T03:12:00;15.3;82
77700;DHT22;66867;42.658;23.320;2023-05-29T03:13:00;15.4;82
77700;DHT22;66867;42.658;23.320;2023-05-29T03:14:00;15.4;82
77700;DHT22;66867;42.658;23.320;2023-05-29T03:15:00;15.4;82
77700;DHT22;66867;42.658;23.320;2023-05-29T03:16:00;15.4;83
77700;DHT22;66867;42.658;23.320;2023-05-29T03:17:00;15.4;83
77700;DHT22;66867;42.658;23.320;2023-05-29T03:18:00;15.4;83
77700;DHT22;66867;42.658;23.320;2023-05-29T03:19:00;15.4;83
77700;DHT22;66867;42.658;23.320;2023-05-29T03:20:00;15.4;84
77700;DHT22;66867;42.658;23.320;2023-05-29T03:21:00;15.4;84
77700;DHT22;66867;42.658;23.320;2023-05-29T03:22:00;15.4;84
77700;DHT22;66867;42.658;23.320;2023-05-29T03:23:00;15.4;84
77700;DHT22;66867;42.658;23.320;2023-05-29T03:24:00;15.5;84
77700;DHT22;66867;42.658;23.320;2023-05-29T03:25:01;15.5;84
77700;DHT22;66867;42.658;23.320;2023-05-29T03:26:01;15.5;84
77700;DHT22;66867;42.658;23.320;2023-05-29T03:27:00;15.5;84
77700;DHT22;66867;42.658;23.320;2023-05-29T03:28:00;15.5;85
77700;DHT22;66867;42.658;23.320;2023-05-29T03:29:00;15.5;85
77700;DHT22;66867;42.658;23.320;2023-05-29T03:30:00;15.5;85
77700;DHT22;66867;42.658;23.320;2023-05-29T03:31:00;15.5;85
77700;DHT22;66867;42.658;23.320;2023-05-29T03:32:00;15.5;85
77700;DHT22;66867;42.658;23.320;2023-05-29T03:33:00;15.5;85
77700;DHT22;66867;42.658;23.320;2023-05-29T03:34:00;15.5;85
77700;DHT22;66867;42.658;23.320;2023-05-29T03:35:00;15.5;85
77700;DHT22;66867;42.658;23.320;2023-05-29T03:36:00;15.5;85
77700;DHT22;66867;42.658;23.320;2023-05-29T03:37:00;15.5;86
77700;DHT22;66867;42.658;23.320;2023-05-29T03:38:00;15.5;85
77700;DHT22;66867;42.658;23.320;2023-05-29T03:39:00;15.5;85
77700;DHT22;66867;42.658;23.320;2023-05-29T03:40:00;15.5;85
77700;DHT22;66867;42.658;23.320;2023-05-29T03:41:00;15.5;85
77700;DHT22;66867;42.658;23.320;2023-05-29T03:42:00;15.5;85
77700;DHT22;66867;42.658;23.320;2023-05-29T03:43:00;15.5;85
77700;DHT22;66867;42.658;23.320;2023-05-29T03:44:00;15.5;85
77700;DHT22;66867;42.658;23.320;2023-05-29T03:45:00;15.5;85
77700;DHT22;66867;42.658;23.320;2023-05-29T03:46:00;15.6;85
77700;DHT22;66867;42.658;23.320;2023-05-29T03:47:00;15.6;85
77700;DHT22;66867;42.658;23.320;2023-05-29T03:48:00;15.6;85
77700;DHT22;66867;42.658;23.320;2023-05-29T03:49:00;15.6;85
77700;DHT22;66867;42.658;23.320;2023-05-29T03:50:00;15.6;85
77700;DHT22;66867;42.658;23.320;2023-05-29T03:51:00;15.6;85
77700;DHT22;66867;42.658;23.320;2023-05-29T03:52:00;15.6;85
77700;DHT22;66867;42.658;23.320;2023-05-29T03:53:00;15.6;85
77700;DHT22;66867;42.658;23.320;2023-05-29T03:54:00;15.6;85
77700;DHT22;66867;42.658;23.320;2023-05-29T03:55:01;15.6;85
77700;DHT22;66867;42.658;23.320;2023-05-29T03:56:00;15.6;85
77700;DHT22;66867;42.658;23.320;2023-05-29T03:57:00;15.6;85
77700;DHT22;66867;42.658;23.320;2023-05-29T03:58:00;15.6;85
77700;DHT22;66867;42.658;23.320;2023-05-29T03:59:00;15.6;85
77700;DHT22;66867;42.658;23.320;2023-05-29T04:00:00;15.6;86
77700;DHT22;66867;42.658;23.320;2023-05-29T04:01:00;15.6;86
77700;DHT22;66867;42.658;23.320;2023-05-29T04:02:00;15.6;85
77700;DHT22;66867;42.658;23.320;2023-05-29T04:03:00;15.6;86
77700;DHT22;66867;42.658;23.320;2023-05-29T04:04:00;15.7;85
77700;DHT22;66867;42.658;23.320;2023-05-29T04:05:00;15.7;85
77700;DHT22;66867;42.658;23.320;2023-05-29T04:06:00;15.7;85
77700;DHT22;66867;42.658;23.320;2023-05-29T04:07:00;15.7;85
77700;DHT22;66867;42.658;23.320;2023-05-29T04:08:00;15.8;85
77700;DHT22;66867;42.658;23.320;2023-05-29T04:09:00;15.8;85
77700;DHT22;66867;42.658;23.320;2023-05-29T04:10:00;15.8;85
77700;DHT22;66867;42.658;23.320;2023-05-29T04:11:00;15.8;85
77700;DHT22;66867;42.658;23.320;2023-05-29T04:12:00;15.8;85
77700;DHT22;66867;42.658;23.320;2023-05-29T04:13:00;15.8;85
77700;DHT22;66867;42.658;23.320;2023-05-29T04:14:00;15.8;85
77700;DHT22;66867;42.658;23.320;2023-05-29T04:15:00;15.8;85
77700;DHT22;66867;42.658;23.320;2023-05-29T04:16:00;15.9;85
77700;DHT22;66867;42.658;23.320;2023-05-29T04:17:00;15.9;85
77700;DHT22;66867;42.658;23.320;2023-05-29T04:18:00;16.0;85
77700;DHT22;66867;42.658;23.320;2023-05-29T04:19:00;16.0;85
77700;DHT22;66867;42.658;23.320;2023-05-29T04:20:00;16.0;85
77700;DHT22;66867;42.658;23.320;2023-05-29T04:21:00;16.0;85
77700;DHT22;66867;42.658;23.320;2023-05-29T04:22:00;16.1;85
77700;DHT22;66867;42.658;23.320;2023-05-29T04:23:00;16.1;85
77700;DHT22;66867;42.658;23.320;2023-05-29T04:24:00;16.1;85
77700;DHT22;66867;42.658;23.320;2023-05-29T04:25:00;16.1;85
77700;DHT22;66867;42.658;23.320;2023-05-29T04:26:00;16.2;85
77700;DHT22;66867;42.658;23.320;2023-05-29T04:27:00;16.2;85
77700;DHT22;66867;42.658;23.320;2023-05-29T04:28:01;16.2;85
77700;DHT22;66867;42.658;23.320;2023-05-29T04:29:01;16.2;86
77700;DHT22;66867;42.658;23.320;2023-05-29T04:30:00;16.2;86
77700;DHT22;66867;42.658;23.320;2023-05-29T04:31:00;16.2;85
77700;DHT22;66867;42.658;23.320;2023-05-29T04:32:00;16.3;85
77700;DHT22;66867;42.658;23.320;2023-05-29T04:33:00;16.3;85
77700;DHT22;66867;42.658;23.320;2023-05-29T04:34:00;16.3;85
77700;DHT22;66867;42.658;23.320;2023-05-29T04:35:00;16.3;85
77700;DHT22;66867;42.658;23.320;2023-05-29T04:36:00;16.3;85
77700;DHT22;66867;42.658;23.320;2023-05-29T04:37:01;16.3;85
77700;DHT22;66867;42.658;23.320;2023-05-29T04:38:00;16.4;85
77700;DHT22;66867;42.658;23.320;2023-05-29T04:39:00;16.4;86
77700;DHT22;66867;42.658;23.320;2023-05-29T04:40:00;16.4;85
77700;DHT22;66867;42.658;23.320;2023-05-29T04:41:00;16.4;85
77700;DHT22;66867;42.658;23.320;2023-05-29T04:42:00;16.4;85
77700;DHT22;66867;42.658;23.320;2023-05-29T04:43:00;16.4;85
77700;DHT22;66867;42.658;23.320;2023-05-29T04:44:00;16.4;85
77700;DHT22;66867;42.658;23.320;2023-05-29T04:45:00;16.4;85
77700;DHT22;66867;42.658;23.320;2023-05-29T04:46:00;16.4;85
77700;DHT22;66867;42.658;23.320;2023-05-29T04:47:00;16.5;85
77700;DHT22;66867;42.658;23.320;2023-05-29T04:48:00;16.5;85
77700;DHT22;66867;42.658;23.320;2023-05-29T04:49:00;16.5;85
77700;DHT22;66867;42.658;23.320;2023-05-29T04:50:00;16.5;85
77700;DHT22;66867;42.658;23.320;2023-05-29T04:51:00;16.6;85
77700;DHT22;66867;42.658;23.320;2023-05-29T04:52:00;16.6;85
77700;DHT22;66867;42.658;23.320;2023-05-29T04:53:00;16.6;85
77700;DHT22;66867;42.658;23.320;2023-05-29T04:54:00;16.6;85
77700;DHT22;66867;42.658;23.320;2023-05-29T04:55:00;16.7;86
77700;DHT22;66867;42.658;23.320;2023-05-29T04:56:00;16.7;86
77700;DHT22;66867;42.658;23.320;2023-05-29T04:57:00;16.8;86
77700;DHT22;66867;42.658;23.320;2023-05-29T04:58:00;16.8;86
77700;DHT22;66867;42.658;23.320;2023-05-29T04:59:00;16.8;86
77700;DHT22;66867;42.658;23.320;2023-05-29T05:00:00;16.8;85
77700;DHT22;66867;42.658;23.320;2023-05-29T05:01:00;16.8;85
77700;DHT22;66867;42.658;23.320;2023-05-29T05:02:00;16.9;85
77700;DHT22;66867;42.658;23.320;2023-05-29T05:03:00;16.9;86
77700;DHT22;66867;42.658;23.320;2023-05-29T05:04:00;17.0;86
77700;DHT22;66867;42.658;23.320;2023-05-29T05:05:00;17.0;86
77700;DHT22;66867;42.658;23.320;2023-05-29T05:06:00;17.0;86
77700;DHT22;66867;42.658;23.320;2023-05-29T05:07:00;17.1;86
77700;DHT22;66867;42.658;23.320;2023-05-29T05:08:00;17.1;86
77700;DHT22;66867;42.658;23.320;2023-05-29T05:09:00;17.1;86
77700;DHT22;66867;42.658;23.320;2023-05-29T05:10:00;17.2;86
77700;DHT22;66867;42.658;23.320;2023-05-29T05:11:00;17.2;85
77700;DHT22;66867;42.658;23.320;2023-05-29T05:12:00;17.2;85
77700;DHT22;66867;42.658;23.320;2023-05-29T05:13:00;17.3;84
77700;DHT22;66867;42.658;23.320;2023-05-29T05:14:00;17.3;84
77700;DHT22;66867;42.658;23.320;2023-05-29T05:15:00;17.3;84
77700;DHT22;66867;42.658;23.320;2023-05-29T05:16:00;17.4;84
77700;DHT22;66867;42.658;23.320;2023-05-29T05:17:00;17.4;83
77700;DHT22;66867;42.658;23.320;2023-05-29T05:18:00;17.5;84
77700;DHT22;66867;42.658;23.320;2023-05-29T05:19:00;17.4;84
77700;DHT22;66867;42.658;23.320;2023-05-29T05:20:00;17.5;84
77700;DHT22;66867;42.658;23.320;2023-05-29T05:21:00;17.5;84
77700;DHT22;66867;42.658;23.320;2023-05-29T05:22:00;17.6;84
77700;DHT22;66867;42.658;23.320;2023-05-29T05:23:00;17.6;84
77700;DHT22;66867;42.658;23.320;2023-05-29T05:24:00;17.6;84
77700;DHT22;66867;42.658;23.320;2023-05-29T05:25:00;17.6;83
77700;DHT22;66867;42.658;23.320;2023-05-29T05:26:00;17.7;83
77700;DHT22;66867;42.658;23.320;2023-05-29T05:27:00;17.7;83
77700;DHT22;66867;42.658;23.320;2023-05-29T05:28:01;17.7;83
77700;DHT22;66867;42.658;23.320;2023-05-29T05:29:00;17.8;83
77700;DHT22;66867;42.658;23.320;2023-05-29T05:30:01;17.8;83
77700;DHT22;66867;42.658;23.320;2023-05-29T05:31:00;17.9;82
77700;DHT22;66867;42.658;23.320;2023-05-29T05:32:00;17.9;82
77700;DHT22;66867;42.658;23.320;2023-05-29T05:33:00;17.9;82
77700;DHT22;66867;42.658;23.320;2023-05-29T05:34:00;18.0;82
77700;DHT22;66867;42.658;23.320;2023-05-29T05:35:00;18.0;81
77700;DHT22;66867;42.658;23.320;2023-05-29T05:36:00;18.0;81
77700;DHT22;66867;42.658;23.320;2023-05-29T05:37:00;18.1;81
77700;DHT22;66867;42.658;23.320;2023-05-29T05:38:00;18.1;80
77700;DHT22;66867;42.658;23.320;2023-05-29T05:39:00;18.1;80
77700;DHT22;66867;42.658;23.320;2023-05-29T05:40:00;18.1;81
77700;DHT22;66867;42.658;23.320;2023-05-29T05:41:00;18.1;80
77700;DHT22;66867;42.658;23.320;2023-05-29T05:42:00;18.2;81
77700;DHT22;66867;42.658;23.320;2023-05-29T05:43:00;18.3;80
77700;DHT22;66867;42.658;23.320;2023-05-29T05:44:00;18.3;80
77700;DHT22;66867;42.658;23.320;2023-05-29T05:45:00;18.4;80
77700;DHT22;66867;42.658;23.320;2023-05-29T05:46:00;18.4;80
77700;DHT22;66867;42.658;23.320;2023-05-29T05:47:00;18.4;80
77700;DHT22;66867;42.658;23.320;2023-05-29T05:48:00;18.5;80
77700;DHT22;66867;42.658;23.320;2023-05-29T05:49:00;18.5;80
77700;DHT22;66867;42.658;23.320;2023-05-29T05:50:00;18.5;80
77700;DHT22;66867;42.658;23.320;2023-05-29T05:51:00;18.6;80
77700;DHT22;66867;42.658;23.320;2023-05-29T05:52:00;18.6;80
77700;DHT22;66867;42.658;23.320;2023-05-29T05:53:00;18.6;80
77700;DHT22;66867;42.658;23.320;2023-05-29T05:54:00;18.6;80
77700;DHT22;66867;42.658;23.320;2023-05-29T05:55:00;18.7;79
77700;DHT22;66867;42.658;23.320;2023-05-29T05:56:00;18.6;79
77700;DHT22;66867;42.658;23.320;2023-05-29T05:57:00;18.7;79
77700;DHT22;66867;42.658;23.320;2023-05-29T05:58:00;18.7;79
77700;DHT22;66867;42.658;23.320;2023-05-29T05:59:00;18.7;79
77700;DHT22;66867;42.658;23.320;2023-05-29T06:00:00;18.8;80
77700;DHT22;66867;42.658;23.320;2023-05-29T06:01:00;18.8;80
77700;DHT22;66867;42.658;23.320;2023-05-29T06:02:00;18.8;80
77700;DHT22;66867;42.658;23.320;2023-05-29T06:03:00;18.9;80
77700;DHT22;66867;42.658;23.320;2023-05-29T06:04:00;19.0;80
77700;DHT22;66867;42.658;23.320;2023-05-29T06:05:00;19.0;80
77700;DHT22;66867;42.658;23.320;2023-05-29T06:06:00;19.1;80
77700;DHT22;66867;42.658;23.320;2023-05-29T06:07:00;19.1;79
77700;DHT22;66867;42.658;23.320;2023-05-29T06:08:00;19.2;79
77700;DHT22;66867;42.658;23.320;2023-05-29T06:09:00;19.2;79
77700;DHT22;66867;42.658;23.320;2023-05-29T06:10:00;19.2;78
77700;DHT22;66867;42.658;23.320;2023-05-29T06:11:00;19.2;78
77700;DHT22;66867;42.658;23.320;2023-05-29T06:12:00;19.3;78
77700;DHT22;66867;42.658;23.320;2023-05-29T06:13:00;19.3;77
77700;DHT22;66867;42.658;23.320;2023-05-29T06:14:00;19.2;78
77700;DHT22;66867;42.658;23.320;2023-05-29T06:15:00;19.3;77
77700;DHT22;66867;42.658;23.320;2023-05-29T06:16:00;19.2;77
77700;DHT22;66867;42.658;23.320;2023-05-29T06:17:00;19.3;78
77700;DHT22;66867;42.658;23.320;2023-05-29T06:18:00;19.4;78
77700;DHT22;66867;42.658;23.320;2023-05-29T06:19:00;19.4;78
77700;DHT22;66867;42.658;23.320;2023-05-29T06:20:00;19.5;76
77700;DHT22;66867;42.658;23.320;2023-05-29T06:21:00;19.5;77
77700;DHT22;66867;42.658;23.320;2023-05-29T06:22:00;19.6;77
77700;DHT22;66867;42.658;23.320;2023-05-29T06:23:00;19.6;78
77700;DHT22;66867;42.658;23.320;2023-05-29T06:24:00;19.6;77
77700;DHT22;66867;42.658;23.320;2023-05-29T06:25:00;19.5;77
77700;DHT22;66867;42.658;23.320;2023-05-29T06:26:00;19.6;78
77700;DHT22;66867;42.658;23.320;2023-05-29T06:27:00;19.7;78
77700;DHT22;66867;42.658;23.320;2023-05-29T06:28:00;19.7;78
77700;DHT22;66867;42.658;23.320;2023-05-29T06:29:00;19.8;77
77700;DHT22;66867;42.658;23.320;2023-05-29T06:30:00;19.8;77
77700;DHT22;66867;42.658;23.320;2023-05-29T06:31:00;19.9;77
77700;DHT22;66867;42.658;23.320;2023-05-29T06:32:00;20.0;77
77700;DHT22;66867;42.658;23.320;2023-05-29T06:33:00;20.0;76
77700;DHT22;66867;42.658;23.320;2023-05-29T06:34:00;20.0;75
77700;DHT22;66867;42.658;23.320;2023-05-29T06:35:00;20.0;75
77700;DHT22;66867;42.658;23.320;2023-05-29T06:36:00;20.0;75
77700;DHT22;66867;42.658;23.320;2023-05-29T06:37:01;20.1;74
77700;DHT22;66867;42.658;23.320;2023-05-29T06:38:00;20.1;74
77700;DHT22;66867;42.658;23.320;2023-05-29T06:39:00;20.1;75
77700;DHT22;66867;42.658;23.320;2023-05-29T06:40:00;20.1;74
77700;DHT22;66867;42.658;23.320;2023-05-29T06:41:00;20.2;74
77700;DHT22;66867;42.658;23.320;2023-05-29T06:42:00;20.2;73
77700;DHT22;66867;42.658;23.320;2023-05-29T06:43:00;20.2;73
77700;DHT22;66867;42.658;23.320;2023-05-29T06:44:00;20.2;74
77700;DHT22;66867;42.658;23.320;2023-05-29T06:45:00;20.2;72